sensor_id;sensor_type;location;lat;lon;timestamp;temperature;humidity
6098;DHT22;3077;50.922;6.584;2022-11-25T00:01:14;8.40;99.90
6098;DHT22;3077;50.922;6.584;2022-11-25T00:03:41;8.40;99.90
6098;DHT22;3077;50.922;6.584;2022-11-25T00:06:18;8.40;99.90
6098;DHT22;3077;50.922;6.584;2022-11-25T00:08:45;8.30;99.90
6098;DHT22;3077;50.922;6.584;2022-11-25T00:11:13;8.30;99.90
6098;DHT22;3077;50.922;6.584;2022-11-25T00:13:40;8.30;99.90
6098;DHT22;3077;50.922;6.584;2022-11-25T00:16:08;8.30;99.90
6098;DHT22;3077;50.922;6.584;2022-11-25T00:18:34;8.30;99.90
6098;DHT22;3077;50.922;6.584;2022-11-25T00:21:08;8.30;99.90
6098;DHT22;3077;50.922;6.584;2022-11-25T00:23:34;8.30;99.90
6098;DHT22;3077;50.922;6.584;2022-11-25T00:28:31;8.30;99.90
6098;DHT22;3077;50.922;6.584;2022-11-25T00:31:10;8.30;99.90
6098;DHT22;3077;50.922;6.584;2022-11-25T00:33:36;8.30;99.90
6098;DHT22;3077;50.922;6.584;2022-11-25T00:36:04;8.30;99.90
6098;DHT22;3077;50.922;6.584;2022-11-25T00:38:29;8.50;99.90
6098;DHT22;3077;50.922;6.584;2022-11-25T00:40:55;8.60;99.90
6098;DHT22;3077;50.922;6.584;2022-11-25T00:43:41;8.50;99.90
6098;DHT22;3077;50.922;6.584;2022-11-25T00:46:25;8.60;99.90
6098;DHT22;3077;50.922;6.584;2022-11-25T00:48:51;8.70;99.90
6098;DHT22;3077;50.922;6.584;2022-11-25T00:51:16;8.70;99.90
6098;DHT22;3077;50.922;6.584;2022-11-25T00:53:42;8.70;99.90
6098;DHT22;3077;50.922;6.584;2022-11-25T00:56:08;8.80;99.90
6098;DHT22;3077;50.922;6.584;2022-11-25T00:58:42;8.80;99.90
6098;DHT22;3077;50.922;6.584;2022-11-25T01:01:08;8.90;99.90
6098;DHT22;3077;50.922;6.584;2022-11-25T01:03:34;8.90;99.90
6098;DHT22;3077;50.922;6.584;2022-11-25T01:06:04;8.90;99.90
6098;DHT22;3077;50.922;6.584;2022-11-25T01:08:32;8.90;99.90
6098;DHT22;3077;50.922;6.584;2022-11-25T01:10:59;8.90;99.90
6098;DHT22;3077;50.922;6.584;2022-11-25T01:13:24;8.90;99.90
6098;DHT22;3077;50.922;6.584;2022-11-25T01:15:50;8.90;99.90
6098;DHT22;3077;50.922;6.584;2022-11-25T01:18:16;9.00;99.90
6098;DHT22;3077;50.922;6.584;2022-11-25T01:20:41;9.00;99.90
6098;DHT22;3077;50.922;6.584;2022-11-25T01:23:07;9.00;99.90
6098;DHT22;3077;50.922;6.584;2022-11-25T01:25:36;9.00;99.90
6098;DHT22;3077;50.922;6.584;2022-11-25T01:28:01;9.00;99.90
6098;DHT22;3077;50.922;6.584;2022-11-25T01:30:27;9.00;99.90
6098;DHT22;3077;50.922;6.584;2022-11-25T01:32:53;9.10;99.90
6098;DHT22;3077;50.922;6.584;2022-11-25T01:35:18;9.10;99.90
6098;DHT22;3077;50.922;6.584;2022-11-25T01:37:44;9.10;99.90
6098;DHT22;3077;50.922;6.584;2022-11-25T01:40:09;9.10;99.90
6098;DHT22;3077;50.922;6.584;2022-11-25T01:42:42;9.10;99.90
6098;DHT22;3077;50.922;6.584;2022-11-25T01:47:49;9.30;99.90
6098;DHT22;3077;50.922;6.584;2022-11-25T01:50:17;9.30;99.90
6098;DHT22;3077;50.922;6.584;2022-11-25T01:52:48;9.30;99.90
6098;DHT22;3077;50.922;6.584;2022-11-25T01:55:19;9.40;99.90
6098;DHT22;3077;50.922;6.584;2022-11-25T01:57:53;9.40;99.90
6098;DHT22;3077;50.922;6.584;2022-11-25T02:00:20;9.50;99.90
6098;DHT22;3077;50.922;6.584;2022-11-25T02:02:48;9.50;99.90
6098;DHT22;3077;50.922;6.584;2022-11-25T02:05:19;9.50;99.90
6098;DHT22;3077;50.922;6.584;2022-11-25T02:07:47;9.50;99.90
6098;DHT22;3077;50.922;6.584;2022-11-25T02:10:17;9.50;99.90
6098;DHT22;3077;50.922;6.584;2022-11-25T02:12:45;9.50;99.90
6098;DHT22;3077;50.922;6.584;2022-11-25T02:15:12;9.40;99.90
6098;DHT22;3077;50.922;6.584;2022-11-25T02:17:38;9.40;99.90
6098;DHT22;3077;50.922;6.584;2022-11-25T02:20:19;9.40;99.90
6098;DHT22;3077;50.922;6.584;2022-11-25T02:22:53;9.40;99.90
6098;DHT22;3077;50.922;6.584;2022-11-25T02:25:25;9.50;99.90
6098;DHT22;3077;50.922;6.584;2022-11-25T02:28:39;9.50;99.90
6098;DHT22;3077;50.922;6.584;2022-11-25T02:30:46;9.50;99.90
6098;DHT22;3077;50.922;6.584;2022-11-25T02:33:12;9.40;99.90
6098;DHT22;3077;50.922;6.584;2022-11-25T02:35:39;9.40;99.90
6098;DHT22;3077;50.922;6.584;2022-11-25T02:38:38;9.40;99.90
6098;DHT22;3077;50.922;6.584;2022-11-25T02:41:10;9.40;99.90
6098;DHT22;3077;50.922;6.584;2022-11-25T02:43:38;9.40;99.90
6098;DHT22;3077;50.922;6.584;2022-11-25T02:46:09;9.50;99.90
6098;DHT22;3077;50.922;6.584;2022-11-25T02:48:36;9.50;99.90
6098;DHT22;3077;50.922;6.584;2022-11-25T02:51:03;9.60;99.90
6098;DHT22;3077;50.922;6.584;2022-11-25T02:53:29;9.60;99.90
6098;DHT22;3077;50.922;6.584;2022-11-25T02:55:54;9.60;99.90
6098;DHT22;3077;50.922;6.584;2022-11-25T02:58:20;9.60;99.90
6098;DHT22;3077;50.922;6.584;2022-11-25T03:00:46;9.70;99.90
6098;DHT22;3077;50.922;6.584;2022-11-25T03:03:12;9.70;99.90
6098;DHT22;3077;50.922;6.584;2022-11-25T03:05:38;9.70;99.90
6098;DHT22;3077;50.922;6.584;2022-11-25T03:08:04;9.70;99.90
6098;DHT22;3077;50.922;6.584;2022-11-25T03:10:30;9.60;99.90
6098;DHT22;3077;50.922;6.584;2022-11-25T03:12:56;9.60;99.90
6098;DHT22;3077;50.922;6.584;2022-11-25T03:15:22;9.60;99.90
6098;DHT22;3077;50.922;6.584;2022-11-25T03:17:48;9.60;99.90
6098;DHT22;3077;50.922;6.584;2022-11-25T03:20:14;9.60;99.90
6098;DHT22;3077;50.922;6.584;2022-11-25T03:22:41;9.60;99.90
6098;DHT22;3077;50.922;6.584;2022-11-25T03:25:07;9.50;99.90
6098;DHT22;3077;50.922;6.584;2022-11-25T03:27:34;9.50;99.90
6098;DHT22;3077;50.922;6.584;2022-11-25T03:30:00;9.50;99.90
6098;DHT22;3077;50.922;6.584;2022-11-25T03:32:25;9.60;99.90
6098;DHT22;3077;50.922;6.584;2022-11-25T03:34:51;9.60;99.90
6098;DHT22;3077;50.922;6.584;2022-11-25T03:37:17;9.60;99.90
6098;DHT22;3077;50.922;6.584;2022-11-25T03:39:42;9.50;99.90
6098;DHT22;3077;50.922;6.584;2022-11-25T03:42:08;9.50;99.90
6098;DHT22;3077;50.922;6.584;2022-11-25T03:44:33;9.50;99.90
6098;DHT22;3077;50.922;6.584;2022-11-25T03:46:59;9.50;99.90
6098;DHT22;3077;50.922;6.584;2022-11-25T03:49:25;9.60;99.90
6098;DHT22;3077;50.922;6.584;2022-11-25T03:51:50;9.60;99.90
6098;DHT22;3077;50.922;6.584;2022-11-25T03:54:16;9.60;99.90
6098;DHT22;3077;50.922;6.584;2022-11-25T03:56:42;9.60;99.90
6098;DHT22;3077;50.922;6.584;2022-11-25T03:59:07;9.50;99.90
6098;DHT22;3077;50.922;6.584;2022-11-25T04:01:33;9.60;99.90
6098;DHT22;3077;50.922;6.584;2022-11-25T04:03:59;9.70;99.90
6098;DHT22;3077;50.922;6.584;2022-11-25T04:06:25;9.80;99.90
6098;DHT22;3077;50.922;6.584;2022-11-25T04:08:50;9.80;99.90
6098;DHT22;3077;50.922;6.584;2022-11-25T04:11:16;9.80;99.90
6098;DHT22;3077;50.922;6.584;2022-11-25T04:13:42;9.70;99.90
6098;DHT22;3077;50.922;6.584;2022-11-25T04:16:34;9.70;99.90
6098;DHT22;3077;50.922;6.584;2022-11-25T04:18:59;9.70;99.90
6098;DHT22;3077;50.922;6.584;2022-11-25T04:21:25;9.70;99.90
6098;DHT22;3077;50.922;6.584;2022-11-25T04:23:50;9.60;99.90
6098;DHT22;3077;50.922;6.584;2022-11-25T04:26:16;9.60;99.90
6098;DHT22;3077;50.922;6.584;2022-11-25T04:28:41;9.60;99.90
6098;DHT22;3077;50.922;6.584;2022-11-25T04:31:08;9.60;99.90
6098;DHT22;3077;50.922;6.584;2022-11-25T04:33:33;9.60;99.90
6098;DHT22;3077;50.922;6.584;2022-11-25T04:35:59;9.60;99.90
6098;DHT22;3077;50.922;6.584;2022-11-25T04:38:25;9.60;99.90
6098;DHT22;3077;50.922;6.584;2022-11-25T04:40:50;9.50;99.90
6098;DHT22;3077;50.922;6.584;2022-11-25T04:43:16;9.60;99.90
6098;DHT22;3077;50.922;6.584;2022-11-25T04:45:41;9.60;99.90
6098;DHT22;3077;50.922;6.584;2022-11-25T04:48:07;9.60;99.90
6098;DHT22;3077;50.922;6.584;2022-11-25T04:50:33;9.60;99.90
6098;DHT22;3077;50.922;6.584;2022-11-25T04:52:58;9.60;99.90
6098;DHT22;3077;50.922;6.584;2022-11-25T04:55:24;9.60;99.90
6098;DHT22;3077;50.922;6.584;2022-11-25T04:57:49;9.50;99.90
6098;DHT22;3077;50.922;6.584;2022-11-25T05:00:15;9.60;99.90
6098;DHT22;3077;50.922;6.584;2022-11-25T05:02:41;9.50;99.90
6098;DHT22;3077;50.922;6.584;2022-11-25T05:05:07;9.50;99.90
6098;DHT22;3077;50.922;6.584;2022-11-25T05:07:33;9.50;99.90
6098;DHT22;3077;50.922;6.584;2022-11-25T05:09:59;9.60;99.90
6098;DHT22;3077;50.922;6.584;2022-11-25T05:12:26;9.70;99.90
6098;DHT22;3077;50.922;6.584;2022-11-25T05:14:53;9.60;99.90
6098;DHT22;3077;50.922;6.584;2022-11-25T05:17:24;9.60;99.90
6098;DHT22;3077;50.922;6.584;2022-11-25T05:19:50;9.60;99.90
6098;DHT22;3077;50.922;6.584;2022-11-25T05:22:18;9.70;99.90
6098;DHT22;3077;50.922;6.584;2022-11-25T05:24:44;9.70;99.90
6098;DHT22;3077;50.922;6.584;2022-11-25T05:27:09;9.60;99.90
6098;DHT22;3077;50.922;6.584;2022-11-25T05:29:36;9.60;99.90
6098;DHT22;3077;50.922;6.584;2022-11-25T05:32:02;9.60;99.90
6098;DHT22;3077;50.922;6.584;2022-11-25T05:34:28;9.60;99.90
6098;DHT22;3077;50.922;6.584;2022-11-25T05:36:54;9.60;99.90
6098;DHT22;3077;50.922;6.584;2022-11-25T05:39:20;9.60;99.90
6098;DHT22;3077;50.922;6.584;2022-11-25T05:41:45;9.60;99.90
6098;DHT22;3077;50.922;6.584;2022-11-25T05:44:11;9.70;99.90
6098;DHT22;3077;50.922;6.584;2022-11-25T05:46:37;9.60;99.90
6098;DHT22;3077;50.922;6.584;2022-11-25T05:49:03;9.60;99.90
6098;DHT22;3077;50.922;6.584;2022-11-25T05:51:29;9.60;99.90
6098;DHT22;3077;50.922;6.584;2022-11-25T05:53:55;9.60;99.90
6098;DHT22;3077;50.922;6.584;2022-11-25T05:56:21;9.50;99.90
6098;DHT22;3077;50.922;6.584;2022-11-25T05:58:47;9.50;99.90
6098;DHT22;3077;50.922;6.584;2022-11-25T06:01:14;9.50;99.90
6098;DHT22;3077;50.922;6.584;2022-11-25T06:03:40;9.50;99.90
6098;DHT22;3077;50.922;6.584;2022-11-25T06:06:06;9.50;99.90
6098;DHT22;3077;50.922;6.584;2022-11-25T06:08:33;9.50;99.90
6098;DHT22;3077;50.922;6.584;2022-11-25T06:11:04;9.50;99.90
6098;DHT22;3077;50.922;6.584;2022-11-25T06:13:29;9.60;99.90
6098;DHT22;3077;50.922;6.584;2022-11-25T06:15:55;9.60;99.90
6098;DHT22;3077;50.922;6.584;2022-11-25T06:18:21;9.60;99.90
6098;DHT22;3077;50.922;6.584;2022-11-25T06:20:55;9.60;99.90
6098;DHT22;3077;50.922;6.584;2022-11-25T06:23:21;9.60;99.90
6098;DHT22;3077;50.922;6.584;2022-11-25T06:25:46;9.60;99.90
6098;DHT22;3077;50.922;6.584;2022-11-25T06:28:12;9.60;99.90
6098;DHT22;3077;50.922;6.584;2022-11-25T06:30:37;9.60;99.90
6098;DHT22;3077;50.922;6.584;2022-11-25T06:33:03;9.60;99.90
6098;DHT22;3077;50.922;6.584;2022-11-25T06:35:29;9.60;99.90
6098;DHT22;3077;50.922;6.584;2022-11-25T06:37:55;9.50;99.90
6098;DHT22;3077;50.922;6.584;2022-11-25T06:40:22;9.60;99.90
6098;DHT22;3077;50.922;6.584;2022-11-25T06:42:47;9.60;99.90
6098;DHT22;3077;50.922;6.584;2022-11-25T06:45:13;9.60;99.90
6098;DHT22;3077;50.922;6.584;2022-11-25T06:47:39;9.60;99.90
6098;DHT22;3077;50.922;6.584;2022-11-25T06:50:05;9.50;99.90
6098;DHT22;3077;50.922;6.584;2022-11-25T06:52:31;9.40;99.90
6098;DHT22;3077;50.922;6.584;2022-11-25T06:54:56;9.30;99.90
6098;DHT22;3077;50.922;6.584;2022-11-25T06:57:22;9.30;99.90
6098;DHT22;3077;50.922;6.584;2022-11-25T06:59:47;9.30;99.90
6098;DHT22;3077;50.922;6.584;2022-11-25T07:02:13;9.20;99.90
6098;DHT22;3077;50.922;6.584;2022-11-25T07:04:39;9.10;99.90
6098;DHT22;3077;50.922;6.584;2022-11-25T07:07:05;9.10;99.90
6098;DHT22;3077;50.922;6.584;2022-11-25T07:09:31;9.10;99.90
6098;DHT22;3077;50.922;6.584;2022-11-25T07:11:56;9.00;99.90
6098;DHT22;3077;50.922;6.584;2022-11-25T07:14:22;9.00;99.90
6098;DHT22;3077;50.922;6.584;2022-11-25T07:16:47;8.90;99.90
6098;DHT22;3077;50.922;6.584;2022-11-25T07:19:15;8.90;99.90
6098;DHT22;3077;50.922;6.584;2022-11-25T07:21:41;9.00;99.90
6098;DHT22;3077;50.922;6.584;2022-11-25T07:24:11;9.00;99.90
6098;DHT22;3077;50.922;6.584;2022-11-25T07:26:38;9.00;99.90
6098;DHT22;3077;50.922;6.584;2022-11-25T07:29:07;9.00;99.90
6098;DHT22;3077;50.922;6.584;2022-11-25T07:31:36;9.00;99.90
6098;DHT22;3077;50.922;6.584;2022-11-25T07:34:17;8.90;99.90
6098;DHT22;3077;50.922;6.584;2022-11-25T07:36:44;8.90;99.90
6098;DHT22;3077;50.922;6.584;2022-11-25T07:39:12;8.90;99.90
6098;DHT22;3077;50.922;6.584;2022-11-25T07:41:38;9.00;99.90
6098;DHT22;3077;50.922;6.584;2022-11-25T07:44:05;9.00;99.90
6098;DHT22;3077;50.922;6.584;2022-11-25T07:46:35;9.00;99.90
6098;DHT22;3077;50.922;6.584;2022-11-25T07:49:04;9.00;99.90
6098;DHT22;3077;50.922;6.584;2022-11-25T07:54:08;9.10;99.90
6098;DHT22;3077;50.922;6.584;2022-11-25T07:56:35;9.20;99.90
6098;DHT22;3077;50.922;6.584;2022-11-25T07:59:02;9.20;99.90
6098;DHT22;3077;50.922;6.584;2022-11-25T08:01:28;9.20;99.90
6098;DHT22;3077;50.922;6.584;2022-11-25T08:03:54;9.20;99.90
6098;DHT22;3077;50.922;6.584;2022-11-25T08:06:23;9.20;99.90
6098;DHT22;3077;50.922;6.584;2022-11-25T08:08:50;9.30;99.90
6098;DHT22;3077;50.922;6.584;2022-11-25T08:11:21;9.30;99.90
6098;DHT22;3077;50.922;6.584;2022-11-25T08:13:47;9.40;99.90
6098;DHT22;3077;50.922;6.584;2022-11-25T08:16:15;9.40;99.90
6098;DHT22;3077;50.922;6.584;2022-11-25T08:18:41;9.40;99.90
6098;DHT22;3077;50.922;6.584;2022-11-25T08:21:08;9.40;99.90
6098;DHT22;3077;50.922;6.584;2022-11-25T08:23:35;9.50;99.90
6098;DHT22;3077;50.922;6.584;2022-11-25T08:26:09;9.40;99.90
6098;DHT22;3077;50.922;6.584;2022-11-25T08:28:36;9.50;99.90
6098;DHT22;3077;50.922;6.584;2022-11-25T08:31:07;9.70;99.90
6098;DHT22;3077;50.922;6.584;2022-11-25T08:33:33;9.60;99.90
6098;DHT22;3077;50.922;6.584;2022-11-25T08:35:58;9.60;99.90
6098;DHT22;3077;50.922;6.584;2022-11-25T08:38:25;9.70;99.90
6098;DHT22;3077;50.922;6.584;2022-11-25T08:40:51;9.80;99.90
6098;DHT22;3077;50.922;6.584;2022-11-25T08:43:18;9.80;99.90
6098;DHT22;3077;50.922;6.584;2022-11-25T08:45:48;9.80;99.90
6098;DHT22;3077;50.922;6.584;2022-11-25T08:48:16;9.80;99.90
6098;DHT22;3077;50.922;6.584;2022-11-25T08:50:46;9.80;99.90
6098;DHT22;3077;50.922;6.584;2022-11-25T08:53:12;9.90;99.90
6098;DHT22;3077;50.922;6.584;2022-11-25T08:55:38;9.90;99.90
6098;DHT22;3077;50.922;6.584;2022-11-25T08:58:04;10.00;99.90
6098;DHT22;3077;50.922;6.584;2022-11-25T09:00:35;10.10;99.90
6098;DHT22;3077;50.922;6.584;2022-11-25T09:03:01;10.10;99.90
6098;DHT22;3077;50.922;6.584;2022-11-25T09:05:26;10.20;99.90
6098;DHT22;3077;50.922;6.584;2022-11-25T09:07:53;10.30;99.90
6098;DHT22;3077;50.922;6.584;2022-11-25T09:10:18;10.30;99.90
6098;DHT22;3077;50.922;6.584;2022-11-25T09:12:44;10.40;99.90
6098;DHT22;3077;50.922;6.584;2022-11-25T09:15:10;10.40;99.90
6098;DHT22;3077;50.922;6.584;2022-11-25T09:17:35;10.40;99.90
6098;DHT22;3077;50.922;6.584;2022-11-25T09:20:03;10.50;99.90
6098;DHT22;3077;50.922;6.584;2022-11-25T09:22:30;10.50;99.90
6098;DHT22;3077;50.922;6.584;2022-11-25T09:24:56;10.50;99.90
6098;DHT22;3077;50.922;6.584;2022-11-25T09:27:21;10.60;99.90
6098;DHT22;3077;50.922;6.584;2022-11-25T09:29:47;10.60;99.90
6098;DHT22;3077;50.922;6.584;2022-11-25T09:32:13;10.60;99.90
6098;DHT22;3077;50.922;6.584;2022-11-25T09:34:38;10.80;99.90
6098;DHT22;3077;50.922;6.584;2022-11-25T09:37:04;10.70;99.90
6098;DHT22;3077;50.922;6.584;2022-11-25T09:39:29;10.80;99.90
6098;DHT22;3077;50.922;6.584;2022-11-25T09:51:30;10.90;99.90
6098;DHT22;3077;50.922;6.584;2022-11-25T09:54:19;10.90;99.90
6098;DHT22;3077;50.922;6.584;2022-11-25T09:56:58;11.00;99.90
6098;DHT22;3077;50.922;6.584;2022-11-25T09:59:33;11.00;99.90
6098;DHT22;3077;50.922;6.584;2022-11-25T10:02:15;11.10;99.90
6098;DHT22;3077;50.922;6.584;2022-11-25T10:04:54;11.10;99.90
6098;DHT22;3077;50.922;6.584;2022-11-25T10:07:34;11.20;99.90
6098;DHT22;3077;50.922;6.584;2022-11-25T10:10:02;11.30;99.90
6098;DHT22;3077;50.922;6.584;2022-11-25T10:12:36;11.30;99.90
6098;DHT22;3077;50.922;6.584;2022-11-25T10:15:14;11.40;99.90
6098;DHT22;3077;50.922;6.584;2022-11-25T10:17:49;11.50;99.90
6098;DHT22;3077;50.922;6.584;2022-11-25T10:20:29;11.50;99.90
6098;DHT22;3077;50.922;6.584;2022-11-25T10:23:19;11.50;99.90
6098;DHT22;3077;50.922;6.584;2022-11-25T10:25:48;11.60;99.90
6098;DHT22;3077;50.922;6.584;2022-11-25T10:28:29;11.70;99.90
6098;DHT22;3077;50.922;6.584;2022-11-25T10:31:19;11.60;99.90
6098;DHT22;3077;50.922;6.584;2022-11-25T10:33:53;11.60;99.90
6098;DHT22;3077;50.922;6.584;2022-11-25T10:42:02;11.80;99.90
6098;DHT22;3077;50.922;6.584;2022-11-25T10:44:34;11.80;99.90
6098;DHT22;3077;50.922;6.584;2022-11-25T10:52:22;12.00;99.90
6098;DHT22;3077;50.922;6.584;2022-11-25T10:55:18;12.20;99.90
6098;DHT22;3077;50.922;6.584;2022-11-25T10:57:42;12.30;99.90
6098;DHT22;3077;50.922;6.584;2022-11-25T11:02:48;12.60;99.90
6098;DHT22;3077;50.922;6.584;2022-11-25T11:05:22;12.60;99.90
6098;DHT22;3077;50.922;6.584;2022-11-25T11:08:48;12.60;99.90
6098;DHT22;3077;50.922;6.584;2022-11-25T11:13:41;12.70;99.90
6098;DHT22;3077;50.922;6.584;2022-11-25T11:16:34;12.60;99.90
6098;DHT22;3077;50.922;6.584;2022-11-25T11:19:00;12.50;99.90
6098;DHT22;3077;50.922;6.584;2022-11-25T11:21:33;12.40;99.90
6098;DHT22;3077;50.922;6.584;2022-11-25T11:24:00;12.30;99.90
6098;DHT22;3077;50.922;6.584;2022-11-25T11:26:33;12.50;99.90
6098;DHT22;3077;50.922;6.584;2022-11-25T11:29:15;12.70;99.90
6098;DHT22;3077;50.922;6.584;2022-11-25T11:31:46;13.00;99.90
6098;DHT22;3077;50.922;6.584;2022-11-25T11:34:51;13.10;99.90
6098;DHT22;3077;50.922;6.584;2022-11-25T11:45:56;12.40;99.90
6098;DHT22;3077;50.922;6.584;2022-11-25T11:48:26;12.40;99.90
6098;DHT22;3077;50.922;6.584;2022-11-25T11:54:24;14.00;99.90
6098;DHT22;3077;50.922;6.584;2022-11-25T11:56:58;14.20;99.90
6098;DHT22;3077;50.922;6.584;2022-11-25T11:59:53;14.10;99.90
6098;DHT22;3077;50.922;6.584;2022-11-25T12:10:21;13.20;99.90
6098;DHT22;3077;50.922;6.584;2022-11-25T12:12:52;12.90;99.90
6098;DHT22;3077;50.922;6.584;2022-11-25T12:21:11;13.10;99.90
6098;DHT22;3077;50.922;6.584;2022-11-25T12:23:43;14.00;99.90
6098;DHT22;3077;50.922;6.584;2022-11-25T12:26:18;15.10;99.90
6098;DHT22;3077;50.922;6.584;2022-11-25T12:28:54;15.90;99.90
6098;DHT22;3077;50.922;6.584;2022-11-25T12:31:34;16.70;99.90
6098;DHT22;3077;50.922;6.584;2022-11-25T12:34:24;17.00;99.90
6098;DHT22;3077;50.922;6.584;2022-11-25T12:36:54;17.40;99.90
6098;DHT22;3077;50.922;6.584;2022-11-25T12:39:32;17.90;99.90
6098;DHT22;3077;50.922;6.584;2022-11-25T12:42:03;18.30;99.90
6098;DHT22;3077;50.922;6.584;2022-11-25T12:47:11;18.90;99.90
6098;DHT22;3077;50.922;6.584;2022-11-25T12:49:45;19.30;99.90
6098;DHT22;3077;50.922;6.584;2022-11-25T12:55:22;19.40;99.90
6098;DHT22;3077;50.922;6.584;2022-11-25T13:17:12;19.10;99.90
6098;DHT22;3077;50.922;6.584;2022-11-25T13:19:39;19.40;99.90
6098;DHT22;3077;50.922;6.584;2022-11-25T13:24:48;19.80;98.90
6098;DHT22;3077;50.922;6.584;2022-11-25T13:27:34;19.90;99.50
6098;DHT22;3077;50.922;6.584;2022-11-25T13:35:44;20.20;94.90
6098;DHT22;3077;50.922;6.584;2022-11-25T13:38:56;20.40;94.30
6098;DHT22;3077;50.922;6.584;2022-11-25T13:41:24;20.60;91.30
6098;DHT22;3077;50.922;6.584;2022-11-25T13:44:11;20.70;89.30
6098;DHT22;3077;50.922;6.584;2022-11-25T13:46:50;21.00;86.40
6098;DHT22;3077;50.922;6.584;2022-11-25T13:49:30;21.20;84.60
6098;DHT22;3077;50.922;6.584;2022-11-25T13:52:31;21.20;79.90
6098;DHT22;3077;50.922;6.584;2022-11-25T13:54:59;21.10;75.40
6098;DHT22;3077;50.922;6.584;2022-11-25T13:57:30;21.00;71.70
6098;DHT22;3077;50.922;6.584;2022-11-25T14:08:52;20.70;75.20
6098;DHT22;3077;50.922;6.584;2022-11-25T14:11:39;20.90;73.60
6098;DHT22;3077;50.922;6.584;2022-11-25T14:26:56;20.80;66.50
6098;DHT22;3077;50.922;6.584;2022-11-25T14:29:31;20.50;68.20
6098;DHT22;3077;50.922;6.584;2022-11-25T14:32:06;20.30;69.50
6098;DHT22;3077;50.922;6.584;2022-11-25T14:34:37;19.90;72.90
6098;DHT22;3077;50.922;6.584;2022-11-25T14:37:16;19.70;74.90
6098;DHT22;3077;50.922;6.584;2022-11-25T14:42:22;19.10;82.00
6098;DHT22;3077;50.922;6.584;2022-11-25T14:44:54;18.60;88.40
6098;DHT22;3077;50.922;6.584;2022-11-25T14:47:38;17.90;92.20
6098;DHT22;3077;50.922;6.584;2022-11-25T14:50:04;17.30;97.40
6098;DHT22;3077;50.922;6.584;2022-11-25T14:52:36;16.70;99.90
6098;DHT22;3077;50.922;6.584;2022-11-25T14:55:04;16.20;99.90
6098;DHT22;3077;50.922;6.584;2022-11-25T14:57:35;15.80;99.90
6098;DHT22;3077;50.922;6.584;2022-11-25T15:00:08;15.60;99.90
6098;DHT22;3077;50.922;6.584;2022-11-25T15:02:37;15.30;99.90
6098;DHT22;3077;50.922;6.584;2022-11-25T15:07:33;14.80;99.90
6098;DHT22;3077;50.922;6.584;2022-11-25T15:09:58;14.70;99.90
6098;DHT22;3077;50.922;6.584;2022-11-25T15:12:28;14.60;99.90
6098;DHT22;3077;50.922;6.584;2022-11-25T15:14:55;14.50;99.90
6098;DHT22;3077;50.922;6.584;2022-11-25T15:17:39;14.30;99.90
6098;DHT22;3077;50.922;6.584;2022-11-25T15:20:13;14.00;99.90
6098;DHT22;3077;50.922;6.584;2022-11-25T15:22:48;13.80;99.90
6098;DHT22;3077;50.922;6.584;2022-11-25T15:25:15;13.70;99.90
6098;DHT22;3077;50.922;6.584;2022-11-25T15:27:52;13.50;99.90
6098;DHT22;3077;50.922;6.584;2022-11-25T15:32:44;13.10;99.90
6098;DHT22;3077;50.922;6.584;2022-11-25T15:35:16;12.90;99.90
6098;DHT22;3077;50.922;6.584;2022-11-25T15:37:42;12.80;99.90
6098;DHT22;3077;50.922;6.584;2022-11-25T15:40:33;12.70;99.90
6098;DHT22;3077;50.922;6.584;2022-11-25T15:43:04;12.50;99.90
6098;DHT22;3077;50.922;6.584;2022-11-25T15:45:41;12.50;99.90
6098;DHT22;3077;50.922;6.584;2022-11-25T15:48:23;12.40;99.90
6098;DHT22;3077;50.922;6.584;2022-11-25T15:50:50;12.30;99.90
6098;DHT22;3077;50.922;6.584;2022-11-25T15:53:23;12.30;99.90
6098;DHT22;3077;50.922;6.584;2022-11-25T15:55:50;12.30;99.90
6098;DHT22;3077;50.922;6.584;2022-11-25T15:58:23;12.30;99.90
6098;DHT22;3077;50.922;6.584;2022-11-25T16:01:05;12.30;99.90
6098;DHT22;3077;50.922;6.584;2022-11-25T16:03:32;12.30;99.90
6098;DHT22;3077;50.922;6.584;2022-11-25T16:06:00;12.20;99.90
6098;DHT22;3077;50.922;6.584;2022-11-25T16:08:31;12.20;99.90
6098;DHT22;3077;50.922;6.584;2022-11-25T16:11:11;12.10;99.90
6098;DHT22;3077;50.922;6.584;2022-11-25T16:13:40;12.10;99.90
6098;DHT22;3077;50.922;6.584;2022-11-25T16:18:37;12.00;99.90
6098;DHT22;3077;50.922;6.584;2022-11-25T16:21:07;11.80;99.90
6098;DHT22;3077;50.922;6.584;2022-11-25T16:23:35;11.80;99.90
6098;DHT22;3077;50.922;6.584;2022-11-25T16:26:14;11.70;99.90
6098;DHT22;3077;50.922;6.584;2022-11-25T16:28:42;11.70;99.90
6098;DHT22;3077;50.922;6.584;2022-11-25T16:31:16;11.50;99.90
6098;DHT22;3077;50.922;6.584;2022-11-25T16:33:42;11.50;99.90
6098;DHT22;3077;50.922;6.584;2022-11-25T16:36:08;11.40;99.90
6098;DHT22;3077;50.922;6.584;2022-11-25T16:38:34;11.30;99.90
6098;DHT22;3077;50.922;6.584;2022-11-25T16:41:12;11.30;99.90
6098;DHT22;3077;50.922;6.584;2022-11-25T16:43:41;11.20;99.90
6098;DHT22;3077;50.922;6.584;2022-11-25T16:46:14;11.20;99.90
6098;DHT22;3077;50.922;6.584;2022-11-25T16:48:40;11.20;99.90
6098;DHT22;3077;50.922;6.584;2022-11-25T16:51:17;11.10;99.90
6098;DHT22;3077;50.922;6.584;2022-11-25T16:53:44;11.10;99.90
6098;DHT22;3077;50.922;6.584;2022-11-25T16:56:25;11.00;99.90
6098;DHT22;3077;50.922;6.584;2022-11-25T16:58:51;11.00;99.90
6098;DHT22;3077;50.922;6.584;2022-11-25T17:01:18;11.00;99.90
6098;DHT22;3077;50.922;6.584;2022-11-25T17:03:45;11.00;99.90
6098;DHT22;3077;50.922;6.584;2022-11-25T17:06:17;10.90;99.90
6098;DHT22;3077;50.922;6.584;2022-11-25T17:08:43;10.90;99.90
6098;DHT22;3077;50.922;6.584;2022-11-25T17:11:14;10.90;99.90
6098;DHT22;3077;50.922;6.584;2022-11-25T17:13:43;10.90;99.90
6098;DHT22;3077;50.922;6.584;2022-11-25T17:16:22;11.00;99.90
6098;DHT22;3077;50.922;6.584;2022-11-25T17:18:51;11.10;99.90
6098;DHT22;3077;50.922;6.584;2022-11-25T17:21:17;11.20;99.90
6098;DHT22;3077;50.922;6.584;2022-11-25T17:23:43;11.30;99.90
6098;DHT22;3077;50.922;6.584;2022-11-25T17:26:17;11.40;99.90
6098;DHT22;3077;50.922;6.584;2022-11-25T17:28:49;11.40;99.90
6098;DHT22;3077;50.922;6.584;2022-11-25T17:31:16;11.50;99.90
6098;DHT22;3077;50.922;6.584;2022-11-25T17:33:41;11.60;99.90
6098;DHT22;3077;50.922;6.584;2022-11-25T17:36:10;11.60;99.90
6098;DHT22;3077;50.922;6.584;2022-11-25T17:38:36;11.50;99.90
6098;DHT22;3077;50.922;6.584;2022-11-25T17:41:07;11.40;99.90
6098;DHT22;3077;50.922;6.584;2022-11-25T17:43:35;11.30;99.90
6098;DHT22;3077;50.922;6.584;2022-11-25T17:46:02;11.20;99.90
6098;DHT22;3077;50.922;6.584;2022-11-25T17:48:28;11.00;99.90
6098;DHT22;3077;50.922;6.584;2022-11-25T17:50:54;11.00;99.90
6098;DHT22;3077;50.922;6.584;2022-11-25T17:53:20;10.90;99.90
6098;DHT22;3077;50.922;6.584;2022-11-25T17:55:45;10.70;99.90
6098;DHT22;3077;50.922;6.584;2022-11-25T17:58:11;10.80;99.90
6098;DHT22;3077;50.922;6.584;2022-11-25T18:00:41;10.70;99.90
6098;DHT22;3077;50.922;6.584;2022-11-25T18:03:11;10.70;99.90
6098;DHT22;3077;50.922;6.584;2022-11-25T18:05:37;10.60;99.90
6098;DHT22;3077;50.922;6.584;2022-11-25T18:08:03;10.60;99.90
6098;DHT22;3077;50.922;6.584;2022-11-25T18:10:29;10.50;99.90
6098;DHT22;3077;50.922;6.584;2022-11-25T18:12:55;10.50;99.90
6098;DHT22;3077;50.922;6.584;2022-11-25T18:15:27;10.50;99.90
6098;DHT22;3077;50.922;6.584;2022-11-25T18:18:10;10.50;99.90
6098;DHT22;3077;50.922;6.584;2022-11-25T18:20:41;10.50;99.90
6098;DHT22;3077;50.922;6.584;2022-11-25T18:23:08;10.50;99.90
6098;DHT22;3077;50.922;6.584;2022-11-25T18:25:34;10.50;99.90
6098;DHT22;3077;50.922;6.584;2022-11-25T18:28:00;10.50;99.90
6098;DHT22;3077;50.922;6.584;2022-11-25T18:30:29;10.50;99.90